Warning: Javascript must be enabled to use all the features on this page!


Page Loading - Please Wait...

Click to hideNews Bulletins

Peak Streamflow for the Nation

USGS 05595000 KASKASKIA RIVER AT NEW ATHENS, IL

St. Clair County, Illinois
Hydrologic Unit Code 07140204
Latitude  38°19'11", Longitude  89°53'18" NAD83
Drainage area 5,189  square miles
Gage datum 299.54 feet above NAVD88
Output formats
Table
Graph
Tab-separated file
peakfq (watstore) format
Reselect output format
Water
Year
Date Gage
Height
(feet)
Stream-
flow
(cfs)
1908 1908-05-11 34.30 62,800
1909 1909-04-20 26.80 31,700
1910 1910-03-06 25.30 23,200
1911 1911-05-02 25.00 21,900
1912 1912-04-03 28.20 33,500
1913 1913-03-30 32.90 56,600
1915 1915-08-26 35.70 63,100
1916 1916-02-03 33.30 54,800
1917 1917-06-13 25.98 26,100
1918 1918-04-30 24.50 20,300
1919 1919-06-10 24.10 18,500
1920 1919-11-01 27.60 33,300
1921 1921-04-04 22.88 13,300
1935 1935-05-24 25.60 22,800
1936 1936-03-05 20.19 8,880
1937 1937-01-21 26.01 24,600
1938 1938-04-05 30.05 44,000
1939 1939-04-22 24.46 18,600
1940 1940-05-04 18.00 6,950
1941 1941-04-25 20.54 8,890
1942 1942-07-16 25.132 20,800
1943 1943-05-23 39.35 83,000
1944 1944-04-28 30.522 39,500
1945 1945-04-07 29.602 38,800
1946 1946-08-19 37.26 71,700
1947 1947-05-03 25.202 19,400
1948 1948-04-01 28.05 31,900
1949 1949-01-30 28.26 35,900
1950 1950-01-10 33.60 60,200
1951 1951-02-26 26.49 27,400
1952 1952-04-16 24.26 18,300
1953 1953-03-17 18.51 7,150
1954 1954-09-22 15.27 4,880
1955 1955-03-02 17.69 6,590
1956 1956-02-28 18.41 7,120
1957 1957-06-20 31.08 48,700
1958 1958-08-13 25.45 21,900
1959 1959-02-19 25.53 24,100
1960 1960-07-09 24.90 19,500
1961 1961-05-13 35.872 66,600
1962 1962-03-29 25.78 20,600
1963 1963-05-25 22.02 10,600
1964 1964-04-12 20.45 9,040
1965 1965-04-29 17.232 7,200
1966 1966-02-16 22.82 12,000
1967 1966-12-20 22.86 12,200
1968 1967-12-26 27.75 32,8006
1969 1969-02-03 26.252 26,0006
1970 1970-04-28 25.05 20,6006
1971 1971-02-25 19.51 7,8406
2010 2009-12-28 80.212 27,4006
2011 2011-04-29 90.302 43,2006
2012 2012-01-28 72.562 13,0006
2013 2013-04-22 85.142 30,1006
2014 2014-04-07 77.412 21,9006
2015 2015-06-23 87.152 29,0006
2016 2016-01-01 95.182 55,3006
2017 2017-05-07 92.992 42,8006
2018 2018-03-31 80.852 30,6006
2019 2019-02-10 80.672 30,7006
2020 2020-01-14 85.312 40,8006
2021 2021-03-22 82.352 25,7006
?
  Peak Gage-Height Qualification Codes.
?
  Peak Streamflow Qualification Codes.